createdAt,value
2018-09-20T00:00:07.158Z,101001.96
2018-09-20T00:02:36.204Z,101003.95
2018-09-20T00:05:05.148Z,101006.93
2018-09-20T00:07:34.214Z,100998.36
2018-09-20T00:10:03.183Z,101007.72
2018-09-20T00:12:32.068Z,100995.77
2018-09-20T00:15:00.999Z,101001.06
2018-09-20T00:17:29.991Z,100996.59
2018-09-20T00:19:58.798Z,100992.64
2018-09-20T00:22:27.878Z,100994.34
2018-09-20T00:24:56.661Z,100995.12
2018-09-20T00:27:25.739Z,100992.31
2018-09-20T00:29:54.824Z,100985.14
2018-09-20T00:32:23.840Z,100987.95
2018-09-20T00:34:52.820Z,100980.97
2018-09-20T00:37:21.766Z,100976.69
2018-09-20T00:39:50.755Z,100976.52
2018-09-20T00:42:19.752Z,100972.05
2018-09-20T00:44:48.646Z,100968.83
2018-09-20T00:47:17.680Z,100973.38
2018-09-20T00:49:49.001Z,100967.85
2018-09-20T00:52:17.869Z,100967.85
2018-09-20T00:54:49.525Z,100969.69
2018-09-20T00:57:18.554Z,100972.48
2018-09-20T00:59:47.615Z,100966.44
2018-09-20T01:02:16.453Z,100965.78
2018-09-20T01:04:45.326Z,100970.29
2018-09-20T01:07:14.337Z,100972.16
2018-09-20T01:09:43.268Z,100972.29
2018-09-20T01:12:12.098Z,100974.07
2018-09-20T01:14:40.968Z,100971.19
2018-09-20T01:17:09.868Z,100971.69
2018-09-20T01:19:38.703Z,100969.32
2018-09-20T01:22:07.598Z,100965.64
2018-09-20T01:24:36.477Z,100968.41
2018-09-20T01:27:05.442Z,100970.64
2018-09-20T01:29:34.257Z,100972.33
2018-09-20T01:32:03.196Z,100970.05
2018-09-20T01:34:32.068Z,100975.52
2018-09-20T01:37:00.985Z,100976.28
2018-09-20T01:39:29.878Z,100974.05
2018-09-20T01:41:58.797Z,100971.34
2018-09-20T01:44:27.730Z,100971.65
2018-09-20T01:46:56.493Z,100969.06
2018-09-20T01:49:25.334Z,100959.89
2018-09-20T01:51:54.137Z,100969.92
2018-09-20T01:54:22.963Z,100973.45
2018-09-20T01:56:51.878Z,100969.98
2018-09-20T01:59:20.800Z,100967.06
2018-09-20T02:01:49.736Z,100968.28
2018-09-20T02:04:18.699Z,100968.34
2018-09-20T02:06:47.618Z,100966.94
2018-09-20T02:09:16.504Z,100974.20
2018-09-20T02:11:45.396Z,100975.86
2018-09-20T02:14:14.241Z,100972.86
2018-09-20T02:16:43.216Z,100977.98
2018-09-20T02:19:12.160Z,100978.97
2018-09-20T02:21:40.964Z,100974.86
2018-09-20T02:24:09.892Z,100985.84
2018-09-20T02:26:38.891Z,100981.34
2018-09-20T02:29:07.729Z,100978.14
2018-09-20T02:31:36.621Z,100993.11
2018-09-20T02:34:05.560Z,100990.41
2018-09-20T02:36:34.398Z,100986.97
2018-09-20T02:39:03.281Z,100985.48
2018-09-20T02:41:32.136Z,100982.02
2018-09-20T02:44:01.075Z,100979.37
2018-09-20T02:46:30.055Z,100978.59
2018-09-20T02:48:59.042Z,100974.14
2018-09-20T02:51:27.885Z,100972.73
2018-09-20T02:53:56.738Z,100973.09
2018-09-20T02:56:25.692Z,100966.80
2018-09-20T02:58:54.817Z,100967.85
2018-09-20T03:01:23.698Z,100969.64
2018-09-20T03:03:52.688Z,100964.77
2018-09-20T03:06:21.578Z,100965.29
2018-09-20T03:08:50.496Z,100966.64
2018-09-20T03:11:19.374Z,100968.45
2018-09-20T03:13:48.220Z,100965.95
2018-09-20T03:16:17.031Z,100965.93
2018-09-20T03:18:45.967Z,100966.83
2018-09-20T03:21:14.929Z,100964.34
2018-09-20T03:23:43.832Z,100968.39
2018-09-20T03:26:12.729Z,100973.98
2018-09-20T03:28:41.582Z,100968.00
2018-09-20T03:31:10.500Z,100968.34
2018-09-20T03:33:39.585Z,100969.41
2018-09-20T03:36:08.569Z,100974.81
2018-09-20T03:38:37.424Z,100973.27
2018-09-20T03:41:06.362Z,100980.27
2018-09-20T03:43:35.477Z,100975.91
2018-09-20T03:46:04.315Z,100967.17
2018-09-20T03:48:33.325Z,100971.41
2018-09-20T03:51:02.178Z,100975.16
2018-09-20T03:53:31.147Z,100982.73
2018-09-20T03:55:59.971Z,100978.31
2018-09-20T03:58:28.833Z,100979.02
2018-09-20T04:00:57.697Z,100981.65
2018-09-20T04:03:26.549Z,100983.46
2018-09-20T04:05:55.620Z,100982.81
2018-09-20T04:08:24.513Z,100977.23
2018-09-20T04:10:53.538Z,100976.80
2018-09-20T04:13:22.376Z,100980.31
2018-09-20T04:15:51.337Z,100978.45
2018-09-20T04:18:20.261Z,100974.09
2018-09-20T04:20:49.200Z,100973.75
2018-09-20T04:23:18.051Z,100967.01
2018-09-20T04:25:47.081Z,100978.50
2018-09-20T04:28:16.100Z,100975.95
2018-09-20T04:30:45.075Z,100974.98
2018-09-20T04:33:14.017Z,100973.57
2018-09-20T04:35:42.981Z,100978.69
2018-09-20T04:38:11.892Z,100985.13
2018-09-20T04:40:40.913Z,100983.50
2018-09-20T04:43:09.792Z,100983.77
2018-09-20T04:45:38.789Z,100981.97
2018-09-20T04:48:07.763Z,100977.47
2018-09-20T04:50:36.814Z,100984.03
2018-09-20T04:53:06.640Z,100984.87
2018-09-20T04:55:36.629Z,100979.41
2018-09-20T04:58:05.605Z,100977.02
2018-09-20T05:00:34.486Z,100977.30
2018-09-20T05:03:03.421Z,100980.45
2018-09-20T05:05:32.365Z,100974.71
2018-09-20T05:08:01.393Z,100979.14
2018-09-20T05:10:30.316Z,100977.94
2018-09-20T05:12:59.229Z,100978.98
2018-09-20T05:15:28.152Z,100980.02
2018-09-20T05:17:57.109Z,100983.20
2018-09-20T05:20:25.983Z,100977.67
2018-09-20T05:22:54.872Z,100973.07
2018-09-20T05:25:23.795Z,100978.59
2018-09-20T05:27:52.745Z,100974.41
2018-09-20T05:30:21.805Z,100973.57
2018-09-20T05:32:50.679Z,100977.08
2018-09-20T05:35:19.616Z,100973.51
2018-09-20T05:37:48.549Z,100970.17
2018-09-20T05:40:17.585Z,100973.61
2018-09-20T05:42:46.540Z,100975.21
2018-09-20T05:45:15.537Z,100969.32
2018-09-20T05:47:44.424Z,100978.68
2018-09-20T05:50:13.448Z,100975.70
2018-09-20T05:52:42.388Z,100964.31
2018-09-20T05:55:11.567Z,100966.72
2018-09-20T05:57:40.577Z,100965.23
2018-09-20T06:00:09.909Z,100970.50
2018-09-20T06:02:38.888Z,100966.09
2018-09-20T06:05:07.930Z,100964.14
2018-09-20T06:07:36.821Z,100968.10
2018-09-20T06:10:08.389Z,100967.73
2018-09-20T06:12:37.363Z,100974.41
2018-09-20T06:15:17.765Z,100972.48
2018-09-20T06:17:55.102Z,100974.53
2018-09-20T06:26:41.074Z,100970.27
2018-09-20T06:29:15.555Z,100963.81
2018-09-20T06:31:54.685Z,100965.13
2018-09-20T06:34:43.737Z,100963.95
2018-09-20T06:37:13.305Z,100967.42
2018-09-20T06:39:42.689Z,100971.52
2018-09-20T06:42:11.590Z,100967.41
2018-09-20T06:44:40.653Z,100971.05
2018-09-20T06:47:09.541Z,100969.48
2018-09-20T06:49:38.396Z,100971.22
2018-09-20T06:52:07.316Z,100969.20
2018-09-20T06:54:36.277Z,100968.79
2018-09-20T06:57:05.246Z,100964.04
2018-09-20T06:59:34.119Z,100960.12
2018-09-20T07:02:03.127Z,100954.00
2018-09-20T07:04:32.075Z,100956.82
2018-09-20T07:07:01.072Z,100958.86
2018-09-20T07:09:30.115Z,100959.23
2018-09-20T07:11:59.027Z,100951.97
2018-09-20T07:14:27.929Z,100955.61
2018-09-20T07:17:00.157Z,100966.82
2018-09-20T07:19:29.114Z,100951.88
2018-09-20T07:21:57.970Z,100947.00
2018-09-20T07:24:26.812Z,100941.83
2018-09-20T07:27:04.380Z,100947.86
2018-09-20T07:29:33.269Z,100950.07
2018-09-20T07:32:02.319Z,100944.93
2018-09-20T07:34:31.290Z,100954.75
2018-09-20T07:37:00.164Z,100948.45
2018-09-20T07:39:29.126Z,100947.25
2018-09-20T07:41:58.080Z,100942.14
2018-09-20T07:44:26.920Z,100943.02
2018-09-20T07:46:55.899Z,100941.58
2018-09-20T07:49:24.774Z,100945.34
2018-09-20T07:51:53.691Z,100945.87
2018-09-20T07:54:22.682Z,100949.13
2018-09-20T07:56:53.837Z,100952.46
2018-09-20T07:59:22.673Z,100949.77
2018-09-20T08:01:51.847Z,100951.73
2018-09-20T08:04:20.688Z,100951.66
2018-09-20T08:06:49.514Z,100946.95
2018-09-20T08:09:18.377Z,100955.27
2018-09-20T08:11:47.277Z,100954.04
2018-09-20T08:14:16.123Z,100960.51
2018-09-20T08:16:47.033Z,100963.22
2018-09-20T08:19:15.987Z,100962.22
2018-09-20T08:21:44.804Z,100966.56
2018-09-20T08:24:13.681Z,100954.81
2018-09-20T08:26:42.602Z,100956.83
2018-09-20T08:29:11.532Z,100962.36
2018-09-20T08:31:40.412Z,100959.12
2018-09-20T08:34:09.237Z,100964.83
2018-09-20T08:36:38.235Z,100958.52
2018-09-20T08:39:10.069Z,100961.58
2018-09-20T08:41:39.177Z,100955.64
2018-09-20T08:44:08.492Z,100955.16
2018-09-20T08:46:37.656Z,100953.01
2018-09-20T08:49:06.568Z,100956.58
2018-09-20T08:51:35.429Z,100962.02
2018-09-20T08:54:04.308Z,100951.86
2018-09-20T08:56:33.338Z,100953.70
2018-09-20T08:59:02.206Z,100952.86
2018-09-20T09:01:31.134Z,100955.87
2018-09-20T09:04:00.053Z,100951.43
2018-09-20T09:06:29.001Z,100942.09
2018-09-20T09:08:58.221Z,100942.27
2018-09-20T09:11:27.115Z,100930.16
2018-09-20T09:13:56.088Z,100934.18
2018-09-20T09:16:26.192Z,100923.72
2018-09-20T09:18:55.140Z,100920.09
2018-09-20T09:21:24.147Z,100913.74
2018-09-20T09:23:53.071Z,100915.90
2018-09-20T09:26:21.909Z,100919.38
2018-09-20T09:28:50.773Z,100910.55
2018-09-20T09:31:19.750Z,100908.75
2018-09-20T09:33:48.647Z,100909.54
2018-09-20T09:36:17.726Z,100902.70
2018-09-20T09:38:46.669Z,100904.52
2018-09-20T09:41:15.664Z,100888.22
2018-09-20T09:43:44.633Z,100895.74
2018-09-20T09:46:13.585Z,100898.18
2018-09-20T09:48:45.777Z,100887.45
2018-09-20T09:51:14.670Z,100893.87
2018-09-20T09:53:43.605Z,100895.40
2018-09-20T09:56:13.303Z,100896.80
2018-09-20T09:58:55.528Z,100894.57
2018-09-20T10:01:24.508Z,100889.32
2018-09-20T10:03:53.381Z,100882.51
2018-09-20T10:06:22.356Z,100878.61
2018-09-20T10:08:51.342Z,100868.97
2018-09-20T10:11:20.220Z,100879.09
2018-09-20T10:13:49.281Z,100874.33
2018-09-20T10:16:18.160Z,100866.09
2018-09-20T10:19:04.419Z,100870.78
2018-09-20T10:21:34.915Z,100867.36
2018-09-20T10:24:03.870Z,100873.70
2018-09-20T10:26:32.876Z,100857.70
2018-09-20T10:29:01.904Z,100864.14
2018-09-20T10:31:30.884Z,100857.60
2018-09-20T10:33:59.907Z,100859.37
2018-09-20T10:36:28.854Z,100855.38
2018-09-20T10:39:08.808Z,100855.01
2018-09-20T10:41:37.809Z,100843.77
2018-09-20T10:44:06.834Z,100853.69
2018-09-20T10:46:35.790Z,100837.28
2018-09-20T10:49:04.866Z,100842.84
2018-09-20T10:51:33.965Z,100837.14
2018-09-20T10:54:02.825Z,100841.76
2018-09-20T10:56:31.814Z,100843.56
2018-09-20T10:59:00.805Z,100835.56
2018-09-20T11:01:29.686Z,100839.24
2018-09-20T11:03:58.646Z,100827.53
2018-09-20T11:06:27.496Z,100838.08
2018-09-20T11:09:13.282Z,100841.64
2018-09-20T11:11:43.616Z,100847.98
2018-09-20T11:14:12.537Z,100832.98
2018-09-20T11:16:41.456Z,100836.80
2018-09-20T11:19:11.500Z,100834.36
2018-09-20T11:21:40.469Z,100835.77
2018-09-20T11:24:09.339Z,100828.91
2018-09-20T11:26:38.264Z,100831.20
2018-09-20T11:29:07.293Z,100822.91
2018-09-20T11:31:36.195Z,100827.65
2018-09-20T11:34:05.139Z,100839.41
2018-09-20T11:36:34.123Z,100833.91
2018-09-20T11:39:03.155Z,100831.48
2018-09-20T11:41:32.143Z,100836.17
2018-09-20T11:44:01.065Z,100843.56
2018-09-20T11:46:30.089Z,100842.05
2018-09-20T11:49:01.122Z,100848.62
2018-09-20T11:51:30.092Z,100840.91
2018-09-20T11:53:59.096Z,100849.52
2018-09-20T11:56:28.117Z,100841.13
2018-09-20T11:58:59.221Z,100829.28
2018-09-20T12:01:28.208Z,100834.33
2018-09-20T12:03:57.119Z,100832.58
2018-09-20T12:06:26.098Z,100840.00
2018-09-20T12:08:57.272Z,100819.98
2018-09-20T12:11:26.704Z,100808.73
2018-09-20T12:13:55.676Z,100813.53
2018-09-20T12:16:24.580Z,100809.06
2018-09-20T12:18:54.551Z,100805.11
2018-09-20T12:21:23.454Z,100802.81
2018-09-20T12:23:52.522Z,100801.88
2018-09-20T12:26:21.462Z,100805.09
2018-09-20T12:28:50.513Z,100792.27
2018-09-20T12:31:19.602Z,100792.75
2018-09-20T12:33:48.625Z,100777.30
2018-09-20T12:36:17.491Z,100774.23
2018-09-20T12:38:46.404Z,100769.60
2018-09-20T12:41:15.299Z,100776.36
2018-09-20T12:43:44.185Z,100769.30
2018-09-20T12:46:13.082Z,100757.69
2018-09-20T12:48:41.963Z,100767.11
2018-09-20T12:51:12.964Z,100753.14
2018-09-20T12:53:41.879Z,100754.34
2018-09-20T12:56:10.872Z,100746.87
2018-09-20T12:58:46.689Z,100751.45
2018-09-20T13:01:21.393Z,100754.72
2018-09-20T13:03:52.597Z,100750.97
2018-09-20T13:06:21.753Z,100742.79
2018-09-20T13:08:50.819Z,100737.16
2018-09-20T13:11:21.793Z,100729.02
2018-09-20T13:13:50.869Z,100731.03
2018-09-20T13:16:19.879Z,100730.72
2018-09-20T13:18:48.854Z,100719.62
2018-09-20T13:21:18.916Z,100722.80
2018-09-20T13:23:49.509Z,100724.47
2018-09-20T13:26:18.428Z,100727.67
2018-09-20T13:28:47.433Z,100727.02
2018-09-20T13:31:20.279Z,100727.11
2018-09-20T13:33:49.221Z,100732.30
2018-09-20T13:36:18.181Z,100716.47
2018-09-20T13:38:47.218Z,100719.84
2018-09-20T13:42:03.405Z,100704.44
2018-09-20T13:44:32.536Z,100710.48
2018-09-20T13:47:01.516Z,100710.69
2018-09-20T13:49:30.424Z,100707.48
2018-09-20T13:52:22.512Z,100699.38
2018-09-20T13:54:51.529Z,100687.84
2018-09-20T13:57:20.491Z,100684.70
2018-09-20T13:59:49.527Z,100678.07
2018-09-20T14:02:18.410Z,100668.72
2018-09-20T14:04:47.402Z,100675.14
2018-09-20T14:07:16.319Z,100670.41
2018-09-20T14:09:45.253Z,100662.15
2018-09-20T14:12:24.815Z,100673.46
2018-09-20T14:14:53.756Z,100669.41
2018-09-20T14:17:22.679Z,100672.22
2018-09-20T14:19:51.613Z,100663.22
2018-09-20T14:22:22.611Z,100662.34
2018-09-20T14:24:51.505Z,100654.58
2018-09-20T14:27:20.509Z,100655.59
2018-09-20T14:29:49.613Z,100664.17
2018-09-20T14:32:18.641Z,100654.47
2018-09-20T14:34:47.669Z,100649.14
2018-09-20T14:37:16.570Z,100652.27
2018-09-20T14:39:45.482Z,100650.31
2018-09-20T14:42:27.976Z,100645.86
2018-09-20T14:44:56.835Z,100635.06
2018-09-20T14:47:26.189Z,100626.62
2018-09-20T14:49:55.081Z,100636.83
2018-09-20T14:52:41.411Z,100633.23
2018-09-20T14:55:10.381Z,100631.27
2018-09-20T14:57:39.281Z,100630.45
2018-09-20T15:00:08.285Z,100615.70
2018-09-20T15:02:37.173Z,100620.61
2018-09-20T15:05:06.161Z,100617.30
2018-09-20T15:07:35.133Z,100611.77
2018-09-20T15:10:04.125Z,100613.23
2018-09-20T15:12:33.100Z,100596.98
2018-09-20T15:15:02.085Z,100594.19
2018-09-20T15:17:30.922Z,100589.13
2018-09-20T15:19:59.902Z,100584.80
2018-09-20T15:22:32.161Z,100587.67
2018-09-20T15:25:01.148Z,100591.44
2018-09-20T15:27:30.160Z,100585.87
2018-09-20T15:29:59.195Z,100583.76
2018-09-20T15:32:32.153Z,100580.45
2018-09-20T15:35:01.041Z,100578.28
2018-09-20T15:37:30.011Z,100573.00
2018-09-20T15:39:58.977Z,100560.84
2018-09-20T15:42:31.033Z,100562.41
2018-09-20T15:44:59.967Z,100564.84
2018-09-20T15:47:29.009Z,100564.48
2018-09-20T15:49:58.308Z,100558.17
2018-09-20T15:52:27.260Z,100558.77
2018-09-20T15:54:56.344Z,100556.43
2018-09-20T15:57:25.224Z,100563.52
2018-09-20T15:59:54.275Z,100561.28
2018-09-20T16:02:23.181Z,100554.06
2018-09-20T16:04:52.246Z,100555.23
2018-09-20T16:08:50.829Z,100554.39
2018-09-20T16:11:19.832Z,100546.63
2018-09-20T16:13:48.773Z,100541.85
2018-09-20T16:16:17.651Z,100544.66
2018-09-20T16:18:46.762Z,100538.02
2018-09-20T16:21:15.759Z,100529.91
2018-09-20T16:23:44.716Z,100523.41
2018-09-20T16:26:13.746Z,100514.87
2018-09-20T16:28:50.110Z,100518.82
2018-09-20T16:31:49.801Z,100515.25
2018-09-20T16:34:28.584Z,100509.48
2018-09-20T16:37:11.130Z,100515.17
2018-09-20T16:39:40.946Z,100512.67
2018-09-20T16:42:11.654Z,100500.22
2018-09-20T16:44:40.645Z,100507.23
2018-09-20T16:47:10.124Z,100502.08
2018-09-20T16:49:39.087Z,100499.86
2018-09-20T16:52:08.023Z,100501.20
2018-09-20T16:54:36.920Z,100494.74
2018-09-20T16:57:05.934Z,100492.25
2018-09-20T16:59:34.827Z,100495.31
2018-09-20T17:02:03.922Z,100490.52
2018-09-20T17:04:32.932Z,100492.28
2018-09-20T17:07:01.989Z,100488.91
2018-09-20T17:09:30.883Z,100494.87
2018-09-20T17:11:59.982Z,100487.58
2018-09-20T17:14:28.931Z,100478.27
2018-09-20T17:16:57.944Z,100480.63
2018-09-20T17:19:26.821Z,100472.60
2018-09-20T17:21:55.820Z,100473.52
2018-09-20T17:24:24.779Z,100468.92
2018-09-20T17:26:53.799Z,100467.00
2018-09-20T17:29:22.869Z,100463.15
2018-09-20T17:31:51.888Z,100464.17
2018-09-20T17:34:21.006Z,100461.11
2018-09-20T17:36:50.772Z,100458.82
2018-09-20T17:39:20.366Z,100451.66
2018-09-20T17:41:50.114Z,100455.05
2018-09-20T17:44:19.189Z,100458.41
2018-09-20T17:46:48.049Z,100455.24
2018-09-20T17:49:16.999Z,100450.65
2018-09-20T17:51:46.313Z,100447.69
2018-09-20T17:54:15.697Z,100451.48
2018-09-20T17:56:45.073Z,100449.88
2018-09-20T17:59:14.024Z,100448.23
2018-09-20T18:01:42.983Z,100447.94
2018-09-20T18:04:11.870Z,100451.42
2018-09-20T18:06:40.869Z,100452.23
2018-09-20T18:09:10.490Z,100449.50
2018-09-20T18:11:39.502Z,100450.84
2018-09-20T18:14:08.427Z,100444.57
2018-09-20T18:16:37.330Z,100454.85
2018-09-20T18:19:06.235Z,100446.97
2018-09-20T18:21:35.108Z,100450.17
2018-09-20T18:24:04.207Z,100444.16
2018-09-20T18:26:33.157Z,100443.27
2018-09-20T18:29:02.121Z,100438.06
2018-09-20T18:31:30.996Z,100439.95
2018-09-20T18:34:00.313Z,100436.11
2018-09-20T18:36:29.180Z,100435.00
2018-09-20T18:38:58.230Z,100437.91
2018-09-20T18:41:27.040Z,100432.44
2018-09-20T18:43:56.077Z,100428.59
2018-09-20T18:46:24.941Z,100429.87
2018-09-20T18:48:53.835Z,100431.98
2018-09-20T18:51:22.760Z,100428.12
2018-09-20T18:53:53.702Z,100424.27
2018-09-20T18:56:22.600Z,100426.38
2018-09-20T18:58:51.629Z,100427.66
2018-09-20T19:01:20.652Z,100420.84
2018-09-20T19:03:49.780Z,100422.46
2018-09-20T19:06:18.819Z,100424.11
2018-09-20T19:08:47.860Z,100420.56
2018-09-20T19:11:16.736Z,100420.27
2018-09-20T19:13:45.920Z,100419.71
2018-09-20T19:16:14.821Z,100418.86
2018-09-20T19:18:43.691Z,100414.23
2018-09-20T19:21:12.581Z,100409.33
2018-09-20T19:23:41.530Z,100403.08
2018-09-20T19:26:10.508Z,100403.06
2018-09-20T19:28:39.471Z,100398.71
2018-09-20T19:31:08.360Z,100399.74
2018-09-20T19:33:37.445Z,100399.74
2018-09-20T19:36:06.350Z,100400.55
2018-09-20T19:38:35.187Z,100391.32
2018-09-20T19:41:04.103Z,100392.41
2018-09-20T19:43:33.035Z,100387.53
2018-09-20T19:46:01.861Z,100387.27
2018-09-20T19:48:30.782Z,100383.81
2018-09-20T19:50:59.829Z,100380.36
2018-09-20T19:53:28.719Z,100383.63
2018-09-20T19:55:57.723Z,100384.97
2018-09-20T19:58:26.589Z,100370.62
2018-09-20T20:00:56.681Z,100372.23
2018-09-20T20:03:26.480Z,100377.65
2018-09-20T20:05:55.446Z,100368.98
2018-09-20T20:08:24.524Z,100369.78
2018-09-20T20:10:53.570Z,100368.67
2018-09-20T20:13:22.511Z,100360.27
2018-09-20T20:15:51.528Z,100350.79
2018-09-20T20:18:20.492Z,100356.39
2018-09-20T20:20:49.500Z,100360.13
2018-09-20T20:23:19.561Z,100353.59
2018-09-20T20:25:48.506Z,100352.19
2018-09-20T20:28:17.466Z,100352.19
2018-09-20T20:30:46.482Z,100349.03
2018-09-20T20:33:15.501Z,100344.78
2018-09-20T20:35:44.509Z,100333.67
2018-09-20T20:38:13.434Z,100337.70
2018-09-20T20:40:42.373Z,100340.07
2018-09-20T20:43:11.304Z,100329.75
2018-09-20T20:45:40.204Z,100327.50
2018-09-20T20:48:09.094Z,100324.98
2018-09-20T20:50:38.104Z,100322.20
2018-09-20T20:53:07.020Z,100322.97
2018-09-20T20:55:35.962Z,100327.81
2018-09-20T20:58:04.868Z,100323.23
2018-09-20T21:00:33.912Z,100322.77
2018-09-20T21:03:02.888Z,100320.95
2018-09-20T21:05:31.709Z,100309.45
2018-09-20T21:08:00.624Z,100310.72
2018-09-20T21:10:29.659Z,100307.11
2018-09-20T21:12:58.621Z,100304.04
2018-09-20T21:15:27.593Z,100295.77
2018-09-20T21:17:56.542Z,100293.95
2018-09-20T21:20:25.502Z,100296.15
2018-09-20T21:22:54.521Z,100296.94
2018-09-20T21:25:23.579Z,100289.12
2018-09-20T21:27:52.614Z,100286.16
2018-09-20T21:30:21.496Z,100287.82
2018-09-20T21:32:50.325Z,100279.98
2018-09-20T21:35:19.398Z,100279.98
2018-09-20T21:37:48.437Z,100271.58
2018-09-20T21:40:17.337Z,100271.86
2018-09-20T21:42:46.375Z,100260.19
2018-09-20T21:45:15.473Z,100259.88
2018-09-20T21:47:44.481Z,100251.73
2018-09-20T21:50:13.400Z,100251.45
2018-09-20T21:52:42.365Z,100251.13
2018-09-20T21:55:11.273Z,100240.28
2018-09-20T21:57:40.324Z,100247.86
2018-09-20T22:00:09.379Z,100241.85
2018-09-20T22:02:43.442Z,100236.69
2018-09-20T22:05:12.518Z,100232.02
2018-09-20T22:07:41.516Z,100223.32
2018-09-20T22:10:10.395Z,100218.92
2018-09-20T22:12:39.357Z,100224.59
2018-09-20T22:15:14.589Z,100215.88
2018-09-20T22:17:43.623Z,100210.19
2018-09-20T22:20:12.666Z,100204.98
2018-09-20T22:22:41.545Z,100201.44
2018-09-20T22:25:10.457Z,100195.72
2018-09-20T22:27:39.428Z,100191.65
2018-09-20T22:30:08.327Z,100188.91
2018-09-20T22:32:37.479Z,100179.39
2018-09-20T22:35:06.825Z,100180.19
2018-09-20T22:37:35.861Z,100166.89
2018-09-20T22:40:05.044Z,100167.66
2018-09-20T22:42:33.965Z,100164.39
2018-09-20T22:45:03.579Z,100156.54
2018-09-20T22:47:32.841Z,100156.54
2018-09-20T22:50:01.853Z,100154.89
2018-09-20T22:52:30.837Z,100137.84
2018-09-20T22:54:59.762Z,100141.66
2018-09-20T22:57:28.627Z,100151.91
2018-09-20T22:59:57.621Z,100139.79
2018-09-20T23:02:26.545Z,100143.41
2018-09-20T23:04:55.486Z,100141.61
2018-09-20T23:07:24.530Z,100135.73
2018-09-20T23:09:53.576Z,100131.45
2018-09-20T23:12:22.501Z,100139.91
2018-09-20T23:14:51.365Z,100130.48
2018-09-20T23:17:20.408Z,100130.22
2018-09-20T23:19:49.282Z,100125.34
2018-09-20T23:22:18.233Z,100112.09
2018-09-20T23:24:47.137Z,100111.31
2018-09-20T23:27:16.319Z,100114.84
2018-09-20T23:29:45.232Z,100112.97
2018-09-20T23:32:14.161Z,100112.23
2018-09-20T23:34:42.949Z,100110.39
2018-09-20T23:37:11.852Z,100102.30
2018-09-20T23:39:40.822Z,100100.96
2018-09-20T23:42:09.729Z,100096.62
2018-09-20T23:44:38.639Z,100096.61
2018-09-20T23:47:07.558Z,100090.42
2018-09-20T23:49:36.409Z,100089.33
2018-09-20T23:52:05.459Z,100087.45
2018-09-20T23:54:34.359Z,100080.69
2018-09-20T23:57:03.413Z,100083.69
2018-09-20T23:59:32.348Z,100073.10
